createdAt,value
2023-05-20T00:00:33.744Z,12.01
2023-05-20T00:03:00.992Z,11.98
2023-05-20T00:05:27.534Z,11.95
2023-05-20T00:07:53.999Z,11.91
2023-05-20T00:10:20.383Z,11.88
2023-05-20T00:12:46.838Z,11.85
2023-05-20T00:15:13.344Z,11.81
2023-05-20T00:17:39.866Z,11.80
2023-05-20T00:20:07.284Z,11.76
2023-05-20T00:22:33.708Z,11.72
2023-05-20T00:25:00.122Z,11.68
2023-05-20T00:27:26.513Z,11.67
2023-05-20T00:29:53.152Z,11.67
2023-05-20T00:32:19.798Z,11.66
2023-05-20T00:34:56.618Z,11.63
2023-05-20T00:37:23.043Z,11.58
2023-05-20T00:39:49.491Z,11.56
2023-05-20T00:42:22.667Z,11.56
2023-05-20T00:44:49.296Z,11.51
2023-05-20T00:47:18.771Z,11.45
2023-05-20T00:49:47.569Z,11.44
2023-05-20T00:52:16.261Z,11.44
2023-05-20T00:54:42.985Z,11.44
2023-05-20T00:57:09.803Z,11.45
2023-05-20T00:59:37.912Z,11.42
2023-05-20T01:02:05.359Z,11.40
2023-05-20T01:04:33.304Z,11.39
2023-05-20T01:07:03.164Z,11.35
2023-05-20T01:09:31.675Z,11.34
2023-05-20T01:12:21.113Z,11.32
2023-05-20T01:15:10.779Z,11.28
2023-05-20T01:17:47.963Z,11.26
2023-05-20T01:20:15.402Z,11.23
2023-05-20T01:22:55.642Z,11.23
2023-05-20T01:25:22.696Z,11.16
2023-05-20T01:27:50.145Z,11.15
2023-05-20T01:30:16.914Z,11.14
2023-05-20T01:32:54.132Z,11.12
2023-05-20T01:35:22.542Z,11.10
2023-05-20T01:37:51.669Z,11.08
2023-05-20T01:40:18.875Z,11.05
2023-05-20T01:42:46.542Z,11.00
2023-05-20T01:45:13.006Z,10.99
2023-05-20T01:47:39.525Z,10.95
2023-05-20T01:50:06.714Z,10.90
2023-05-20T01:52:33.593Z,10.90
2023-05-20T01:55:00.048Z,10.85
2023-05-20T01:57:26.592Z,10.82
2023-05-20T01:59:53.062Z,10.80
2023-05-20T02:02:19.793Z,10.80
2023-05-20T02:04:48.263Z,10.79
2023-05-20T02:07:15.653Z,10.76
2023-05-20T02:09:42.123Z,10.72
2023-05-20T02:12:09.055Z,10.69
2023-05-20T02:14:35.523Z,10.69
2023-05-20T02:17:03.439Z,10.64
2023-05-20T02:19:30.000Z,10.61
2023-05-20T02:21:56.936Z,10.58
2023-05-20T02:24:23.736Z,10.58
2023-05-20T02:26:51.289Z,10.56
2023-05-20T02:29:17.804Z,10.55
2023-05-20T02:31:44.309Z,10.53
2023-05-20T02:34:10.772Z,10.51
2023-05-20T02:36:37.219Z,10.45
2023-05-20T02:39:03.911Z,10.43
2023-05-20T02:41:30.686Z,10.41
2023-05-20T02:43:57.167Z,10.40
2023-05-20T02:46:23.902Z,10.36
2023-05-20T02:48:50.358Z,10.32
2023-05-20T02:51:16.808Z,10.29
2023-05-20T02:53:43.350Z,10.25
2023-05-20T02:56:09.863Z,10.21
2023-05-20T02:58:37.240Z,10.20
2023-05-20T03:01:03.738Z,10.18
2023-05-20T03:03:30.671Z,10.15
2023-05-20T03:05:57.147Z,10.13
2023-05-20T03:08:23.788Z,10.12
2023-05-20T03:10:50.851Z,10.11
2023-05-20T03:13:17.387Z,10.10
2023-05-20T03:15:46.707Z,10.09
2023-05-20T03:18:13.811Z,10.06
2023-05-20T03:20:41.595Z,10.04
2023-05-20T03:23:08.785Z,10.02
2023-05-20T03:25:36.801Z,10.00
2023-05-20T03:28:03.822Z,9.98
2023-05-20T03:30:30.649Z,9.98
2023-05-20T03:32:57.884Z,9.97
2023-05-20T03:35:24.783Z,9.93
2023-05-20T03:37:54.252Z,9.93
2023-05-20T03:40:21.257Z,9.91
2023-05-20T03:42:47.790Z,9.88
2023-05-20T03:45:15.468Z,9.87
2023-05-20T03:47:42.075Z,9.87
2023-05-20T03:50:08.985Z,9.87
2023-05-20T03:52:35.424Z,9.88
2023-05-20T03:55:01.933Z,9.90
2023-05-20T03:57:29.463Z,9.92
2023-05-20T03:59:56.198Z,9.92
2023-05-20T04:02:22.892Z,9.94
2023-05-20T04:04:52.922Z,9.94
2023-05-20T04:07:19.659Z,9.98
2023-05-20T04:09:46.773Z,9.99
2023-05-20T04:12:13.900Z,10.00
2023-05-20T04:14:42.208Z,10.04
2023-05-20T04:17:09.647Z,10.06
2023-05-20T04:19:38.250Z,10.12
2023-05-20T04:22:04.932Z,10.18
2023-05-20T04:24:31.778Z,10.26
2023-05-20T04:26:58.348Z,10.30
2023-05-20T04:29:25.240Z,10.35
2023-05-20T04:31:52.138Z,10.36
2023-05-20T04:34:20.064Z,10.37
2023-05-20T04:36:47.105Z,10.38
2023-05-20T04:39:13.909Z,10.40
2023-05-20T04:41:40.454Z,10.42
2023-05-20T04:44:07.213Z,10.43
2023-05-20T04:46:34.003Z,10.43
2023-05-20T04:49:00.634Z,10.44
2023-05-20T04:51:27.293Z,10.47
2023-05-20T04:53:53.749Z,10.51
2023-05-20T04:56:20.890Z,10.57
2023-05-20T04:58:47.327Z,10.59
2023-05-20T05:01:13.864Z,10.61
2023-05-20T05:03:40.358Z,10.64
2023-05-20T05:06:06.823Z,10.67
2023-05-20T05:08:33.270Z,10.69
2023-05-20T05:10:59.760Z,10.73
2023-05-20T05:13:26.285Z,10.74
2023-05-20T05:16:00.077Z,10.80
2023-05-20T05:18:26.999Z,10.85
2023-05-20T05:21:04.579Z,10.89
2023-05-20T05:23:31.623Z,10.94
2023-05-20T05:25:58.678Z,10.99
2023-05-20T05:28:25.519Z,11.03
2023-05-20T05:30:54.511Z,11.08
2023-05-20T05:33:21.175Z,11.12
2023-05-20T05:35:47.769Z,11.19
2023-05-20T05:38:14.339Z,11.24
2023-05-20T05:40:41.897Z,11.31
2023-05-20T05:43:08.330Z,11.37
2023-05-20T05:45:35.078Z,11.43
2023-05-20T05:48:01.738Z,11.49
2023-05-20T05:50:28.183Z,11.57
2023-05-20T05:52:54.613Z,11.63
2023-05-20T05:55:21.256Z,11.70
2023-05-20T05:57:47.740Z,11.77
2023-05-20T06:00:14.543Z,11.84
2023-05-20T06:02:41.294Z,11.93
2023-05-20T06:05:08.421Z,12.03
2023-05-20T06:07:35.002Z,12.76
2023-05-20T06:10:01.935Z,15.18
2023-05-20T06:12:28.329Z,16.93
2023-05-20T06:14:54.793Z,18.07
2023-05-20T06:17:21.246Z,18.56
2023-05-20T06:19:47.865Z,18.78
2023-05-20T06:22:14.366Z,19.00
2023-05-20T06:24:40.898Z,19.32
2023-05-20T06:27:07.305Z,19.25
2023-05-20T06:29:33.797Z,19.26
2023-05-20T06:32:00.297Z,19.28
2023-05-20T06:34:26.740Z,19.13
2023-05-20T06:36:53.618Z,19.13
2023-05-20T06:39:20.507Z,19.33
2023-05-20T06:41:47.048Z,19.51
2023-05-20T06:44:13.457Z,19.18
2023-05-20T06:46:39.968Z,18.99
2023-05-20T06:49:06.444Z,19.02
2023-05-20T06:51:32.924Z,18.86
2023-05-20T06:53:59.511Z,18.70
2023-05-20T06:56:26.046Z,18.75
2023-05-20T06:58:52.638Z,18.47
2023-05-20T07:01:19.188Z,18.26
2023-05-20T07:03:45.887Z,18.28
2023-05-20T07:06:12.445Z,18.48
2023-05-20T07:08:39.031Z,18.68
2023-05-20T07:11:05.816Z,18.66
2023-05-20T07:13:32.278Z,18.71
2023-05-20T07:15:58.848Z,18.81
2023-05-20T07:18:25.507Z,18.89
2023-05-20T07:20:52.718Z,18.92
2023-05-20T07:23:19.154Z,19.11
2023-05-20T07:25:45.727Z,19.05
2023-05-20T07:28:12.283Z,18.99
2023-05-20T07:30:38.703Z,19.18
2023-05-20T07:33:05.198Z,19.33
2023-05-20T07:35:32.845Z,19.18
2023-05-20T07:37:59.401Z,19.08
2023-05-20T07:40:26.015Z,19.29
2023-05-20T07:42:52.466Z,19.52
2023-05-20T07:45:18.937Z,19.61
2023-05-20T07:47:45.473Z,19.63
2023-05-20T07:50:11.986Z,19.58
2023-05-20T07:52:51.891Z,19.55
2023-05-20T07:55:22.319Z,19.76
2023-05-20T07:57:48.770Z,19.72
2023-05-20T08:00:16.027Z,20.01
2023-05-20T08:02:42.630Z,19.97
2023-05-20T08:05:09.452Z,20.00
2023-05-20T08:07:36.042Z,20.12
2023-05-20T08:10:03.821Z,20.20
2023-05-20T08:12:30.718Z,20.35
2023-05-20T08:14:57.250Z,20.35
2023-05-20T08:17:23.912Z,20.44
2023-05-20T08:19:50.359Z,20.66
2023-05-20T08:22:17.118Z,20.89
2023-05-20T08:24:43.574Z,20.96
2023-05-20T08:27:10.001Z,21.09
2023-05-20T08:29:36.505Z,21.16
2023-05-20T08:32:03.015Z,21.01
2023-05-20T08:34:29.456Z,21.22
2023-05-20T08:36:57.714Z,21.50
2023-05-20T08:39:25.157Z,21.71
2023-05-20T08:41:51.723Z,21.85
2023-05-20T08:44:19.503Z,22.25
2023-05-20T08:46:46.508Z,22.14
2023-05-20T08:49:13.031Z,22.45
2023-05-20T08:51:39.714Z,22.46
2023-05-20T08:54:08.760Z,22.58
2023-05-20T08:56:36.787Z,22.82
2023-05-20T08:59:04.056Z,22.72
2023-05-20T09:01:30.765Z,22.61
2023-05-20T09:03:57.297Z,22.47
2023-05-20T09:06:24.157Z,22.39
2023-05-20T09:08:53.464Z,22.22
2023-05-20T09:11:22.616Z,22.45
2023-05-20T09:13:50.391Z,22.56
2023-05-20T09:16:17.042Z,22.70
2023-05-20T09:18:43.605Z,22.34
2023-05-20T09:21:10.178Z,22.59
2023-05-20T09:23:38.424Z,22.59
2023-05-20T09:26:05.054Z,22.64
2023-05-20T09:28:31.754Z,22.74
2023-05-20T09:30:59.480Z,23.00
2023-05-20T09:33:30.592Z,22.80
2023-05-20T09:36:04.916Z,22.78
2023-05-20T09:38:38.072Z,22.65
2023-05-20T09:41:08.725Z,22.64
2023-05-20T09:43:37.238Z,22.67
2023-05-20T09:46:04.665Z,22.78
2023-05-20T09:48:34.159Z,22.60
2023-05-20T09:51:01.776Z,22.33
2023-05-20T09:53:28.655Z,22.19
2023-05-20T09:55:55.979Z,22.33
2023-05-20T09:58:26.055Z,22.23
2023-05-20T10:00:53.975Z,22.16
2023-05-20T10:03:23.727Z,22.07
2023-05-20T10:06:27.495Z,22.12
2023-05-20T10:09:18.235Z,21.89
2023-05-20T10:12:12.477Z,21.59
2023-05-20T10:15:14.529Z,21.75
2023-05-20T10:18:13.200Z,21.70
2023-05-20T10:20:47.387Z,21.79
2023-05-20T10:23:29.168Z,21.93
2023-05-20T10:25:57.520Z,22.39
2023-05-20T10:28:32.888Z,22.65
2023-05-20T10:31:00.443Z,22.94
2023-05-20T10:33:28.177Z,23.05
2023-05-20T10:35:58.714Z,22.89
2023-05-20T10:38:25.572Z,22.67
2023-05-20T10:40:52.901Z,22.66
2023-05-20T10:43:30.684Z,22.83
2023-05-20T10:45:59.391Z,22.94
2023-05-20T10:48:30.663Z,22.92
2023-05-20T10:50:59.845Z,22.72
2023-05-20T10:53:34.586Z,22.12
2023-05-20T10:56:01.596Z,21.86
2023-05-20T10:58:28.265Z,21.64
2023-05-20T11:00:56.158Z,21.36
2023-05-20T11:03:23.655Z,21.58
2023-05-20T11:05:51.175Z,21.93
2023-05-20T11:08:28.525Z,22.18
2023-05-20T11:10:59.115Z,22.44
2023-05-20T11:13:26.439Z,22.78
2023-05-20T11:15:53.460Z,22.98
2023-05-20T11:18:20.140Z,23.02
2023-05-20T11:20:47.344Z,23.06
2023-05-20T11:23:15.168Z,22.96
2023-05-20T11:25:41.736Z,22.54
2023-05-20T11:28:30.084Z,22.00
2023-05-20T11:30:56.836Z,21.56
2023-05-20T11:33:26.763Z,21.86
2023-05-20T11:35:53.897Z,22.10
2023-05-20T11:38:21.622Z,22.00
2023-05-20T11:40:53.413Z,22.10
2023-05-20T11:43:21.189Z,22.33
2023-05-20T11:45:52.735Z,22.37
2023-05-20T11:48:19.594Z,22.24
2023-05-20T11:50:47.464Z,22.34
2023-05-20T11:53:21.862Z,22.75
2023-05-20T11:55:55.246Z,22.94
2023-05-20T11:58:32.331Z,23.16
2023-05-20T12:01:09.028Z,22.87
2023-05-20T12:03:40.596Z,22.66
2023-05-20T12:06:07.270Z,22.64
2023-05-20T12:08:33.733Z,22.69
2023-05-20T12:11:00.300Z,22.34
2023-05-20T12:13:26.759Z,22.81
2023-05-20T12:15:53.391Z,23.05
2023-05-20T12:18:19.815Z,23.25
2023-05-20T12:20:46.233Z,23.43
2023-05-20T12:23:12.725Z,23.56
2023-05-20T12:25:39.170Z,23.24
2023-05-20T12:28:06.755Z,22.80
2023-05-20T12:30:33.699Z,22.51
2023-05-20T12:33:00.427Z,22.33
2023-05-20T12:35:37.556Z,22.12
2023-05-20T12:38:04.245Z,22.10
2023-05-20T12:40:30.830Z,22.13
2023-05-20T12:42:58.108Z,22.30
2023-05-20T12:45:24.569Z,22.31
2023-05-20T12:47:51.346Z,22.23
2023-05-20T12:50:17.930Z,22.14
2023-05-20T12:52:44.473Z,22.23
2023-05-20T12:55:13.815Z,22.31
2023-05-20T12:57:44.710Z,22.58
2023-05-20T13:00:12.597Z,22.49
2023-05-20T13:02:40.390Z,22.48
2023-05-20T13:05:07.328Z,22.50
2023-05-20T13:07:34.252Z,22.57
2023-05-20T13:10:00.736Z,22.40
2023-05-20T13:12:27.818Z,22.37
2023-05-20T13:14:54.303Z,22.43
2023-05-20T13:17:20.855Z,22.39
2023-05-20T13:19:47.352Z,22.46
2023-05-20T13:22:13.760Z,22.53
2023-05-20T13:24:40.261Z,22.60
2023-05-20T13:27:06.780Z,22.62
2023-05-20T13:29:33.184Z,22.70
2023-05-20T13:32:01.768Z,22.70
2023-05-20T13:34:28.736Z,22.71
2023-05-20T13:36:55.240Z,22.76
2023-05-20T13:39:21.743Z,22.60
2023-05-20T13:41:48.169Z,22.53
2023-05-20T13:44:14.721Z,22.72
2023-05-20T13:46:41.285Z,22.78
2023-05-20T13:49:07.874Z,22.78
2023-05-20T13:51:34.450Z,22.60
2023-05-20T13:54:00.910Z,22.81
2023-05-20T13:56:28.162Z,23.22
2023-05-20T13:58:54.589Z,23.44
2023-05-20T14:01:21.098Z,23.49
2023-05-20T14:03:47.665Z,23.25
2023-05-20T14:06:16.066Z,22.87
2023-05-20T14:08:42.540Z,22.80
2023-05-20T14:11:09.033Z,22.64
2023-05-20T14:13:35.497Z,22.63
2023-05-20T14:16:02.130Z,22.82
2023-05-20T14:18:28.568Z,23.00
2023-05-20T14:20:56.271Z,23.11
2023-05-20T14:23:22.750Z,23.16
2023-05-20T14:25:49.219Z,22.96
2023-05-20T14:28:15.701Z,22.80
2023-05-20T14:30:42.170Z,22.61
2023-05-20T14:33:08.663Z,22.51
2023-05-20T14:35:35.128Z,22.53
2023-05-20T14:38:01.564Z,22.59
2023-05-20T14:40:28.032Z,22.65
2023-05-20T14:42:54.523Z,22.65
2023-05-20T14:45:21.078Z,22.79
2023-05-20T14:47:47.571Z,22.87
2023-05-20T14:50:14.031Z,23.16
2023-05-20T14:52:40.467Z,23.06
2023-05-20T14:55:08.178Z,22.85
2023-05-20T14:57:34.902Z,22.46
2023-05-20T15:00:01.340Z,22.46
2023-05-20T15:02:27.925Z,22.53
2023-05-20T15:04:54.493Z,22.70
2023-05-20T15:07:21.317Z,22.75
2023-05-20T15:09:47.935Z,22.66
2023-05-20T15:12:14.506Z,22.59
2023-05-20T15:14:41.101Z,22.57
2023-05-20T15:17:07.814Z,22.47
2023-05-20T15:19:34.703Z,22.29
2023-05-20T15:22:01.391Z,22.19
2023-05-20T15:24:27.855Z,22.12
2023-05-20T15:26:55.026Z,22.10
2023-05-20T15:29:22.063Z,21.90
2023-05-20T15:31:48.586Z,21.90
2023-05-20T15:34:15.018Z,22.02
2023-05-20T15:36:41.525Z,22.07
2023-05-20T15:39:08.191Z,22.00
2023-05-20T15:41:34.599Z,21.91
2023-05-20T15:44:01.202Z,21.92
2023-05-20T15:46:27.778Z,21.92
2023-05-20T15:48:56.214Z,21.93
2023-05-20T15:51:23.435Z,21.86
2023-05-20T15:53:49.981Z,21.58
2023-05-20T15:56:16.876Z,21.55
2023-05-20T15:58:44.481Z,21.39
2023-05-20T16:01:11.112Z,21.31
2023-05-20T16:03:37.794Z,21.20
2023-05-20T16:06:04.550Z,21.08
2023-05-20T16:08:31.566Z,21.15
2023-05-20T16:10:58.141Z,21.14
2023-05-20T16:13:24.640Z,21.17
2023-05-20T16:15:51.477Z,21.24
2023-05-20T16:18:18.145Z,21.22
2023-05-20T16:20:44.699Z,21.27
2023-05-20T16:23:11.383Z,21.31
2023-05-20T16:25:37.860Z,21.34
2023-05-20T16:28:04.300Z,21.37
2023-05-20T16:30:31.659Z,21.37
2023-05-20T16:32:58.234Z,21.29
2023-05-20T16:35:24.767Z,21.28
2023-05-20T16:37:51.465Z,21.28
2023-05-20T16:40:18.141Z,21.19
2023-05-20T16:42:45.319Z,21.15
2023-05-20T16:45:11.908Z,21.15
2023-05-20T16:47:38.619Z,21.17
2023-05-20T16:50:05.896Z,21.14
2023-05-20T16:52:33.941Z,21.08
2023-05-20T16:55:03.586Z,21.09
2023-05-20T16:57:30.707Z,21.20
2023-05-20T16:59:58.289Z,21.16
2023-05-20T17:02:24.904Z,21.04
2023-05-20T17:04:51.756Z,20.90
2023-05-20T17:07:18.354Z,20.85
2023-05-20T17:09:44.878Z,20.86
2023-05-20T17:12:11.323Z,20.85
2023-05-20T17:14:37.725Z,20.86
2023-05-20T17:17:04.429Z,20.89
2023-05-20T17:19:30.978Z,20.90
2023-05-20T17:21:57.507Z,20.92
2023-05-20T17:24:24.053Z,20.85
2023-05-20T17:26:50.841Z,20.68
2023-05-20T17:29:17.250Z,20.70
2023-05-20T17:31:44.518Z,20.77
2023-05-20T17:34:11.120Z,20.77
2023-05-20T17:36:37.882Z,20.76
2023-05-20T17:39:04.609Z,20.75
2023-05-20T17:41:31.046Z,20.68
2023-05-20T17:43:57.560Z,20.60
2023-05-20T17:46:24.102Z,20.46
2023-05-20T17:48:50.519Z,20.31
2023-05-20T17:51:17.100Z,20.21
2023-05-20T17:53:43.528Z,20.19
2023-05-20T17:56:10.083Z,20.10
2023-05-20T17:58:36.782Z,20.04
2023-05-20T18:01:03.273Z,19.97
2023-05-20T18:03:29.750Z,19.95
2023-05-20T18:05:56.664Z,19.91
2023-05-20T18:08:25.231Z,19.82
2023-05-20T18:10:52.439Z,19.74
2023-05-20T18:13:18.867Z,19.63
2023-05-20T18:15:45.595Z,19.58
2023-05-20T18:18:12.263Z,19.54
2023-05-20T18:20:38.742Z,19.55
2023-05-20T18:23:05.230Z,19.52
2023-05-20T18:25:31.983Z,19.49
2023-05-20T18:27:58.487Z,19.49
2023-05-20T18:30:25.160Z,19.49
2023-05-20T18:32:53.108Z,19.45
2023-05-20T18:35:19.844Z,19.34
2023-05-20T18:37:46.688Z,19.31
2023-05-20T18:40:13.366Z,19.26
2023-05-20T18:42:39.829Z,19.22
2023-05-20T18:45:06.983Z,19.17
2023-05-20T18:47:33.656Z,19.12
2023-05-20T18:50:00.254Z,19.09
2023-05-20T18:52:26.757Z,19.04
2023-05-20T18:54:53.168Z,18.95
2023-05-20T18:57:19.675Z,18.96
2023-05-20T18:59:47.981Z,18.89
2023-05-20T19:02:17.061Z,18.82
2023-05-20T19:04:43.730Z,18.78
2023-05-20T19:07:11.501Z,18.75
2023-05-20T19:09:37.957Z,18.69
2023-05-20T19:12:04.951Z,18.63
2023-05-20T19:14:31.946Z,18.58
2023-05-20T19:16:59.888Z,18.49
2023-05-20T19:19:26.614Z,18.42
2023-05-20T19:21:53.158Z,18.39
2023-05-20T19:24:19.673Z,18.38
2023-05-20T19:26:46.359Z,18.35
2023-05-20T19:29:14.970Z,18.34
2023-05-20T19:31:43.104Z,18.28
2023-05-20T19:34:10.169Z,18.26
2023-05-20T19:36:38.311Z,18.18
2023-05-20T19:39:05.280Z,18.13
2023-05-20T19:41:31.984Z,18.10
2023-05-20T19:43:58.448Z,18.06
2023-05-20T19:46:24.963Z,18.05
2023-05-20T19:48:51.386Z,18.03
2023-05-20T19:51:17.870Z,17.98
2023-05-20T19:53:44.386Z,17.91
2023-05-20T19:56:12.709Z,17.79
2023-05-20T19:58:39.115Z,17.72
2023-05-20T20:01:06.627Z,17.66
2023-05-20T20:03:34.072Z,17.57
2023-05-20T20:06:00.659Z,17.49
2023-05-20T20:08:27.178Z,17.40
2023-05-20T20:10:53.659Z,17.26
2023-05-20T20:13:20.057Z,17.22
2023-05-20T20:15:46.804Z,17.18
2023-05-20T20:18:13.466Z,17.09
2023-05-20T20:20:40.646Z,17.07
2023-05-20T20:23:08.085Z,17.07
2023-05-20T20:25:39.041Z,17.00
2023-05-20T20:28:06.815Z,17.01
2023-05-20T20:30:33.734Z,17.00
2023-05-20T20:33:00.324Z,17.02
2023-05-20T20:35:26.896Z,17.01
2023-05-20T20:37:56.211Z,17.02
2023-05-20T20:40:23.719Z,16.99
2023-05-20T20:42:50.116Z,16.99
2023-05-20T20:45:16.583Z,16.96
2023-05-20T20:47:44.654Z,16.96
2023-05-20T20:50:14.041Z,16.99
2023-05-20T20:52:40.492Z,16.95
2023-05-20T20:55:07.328Z,16.95
2023-05-20T20:57:35.146Z,16.96
2023-05-20T21:00:21.291Z,16.93
2023-05-20T21:02:48.304Z,16.93
2023-05-20T21:05:16.688Z,16.91
2023-05-20T21:07:46.445Z,16.87
2023-05-20T21:10:13.125Z,16.84
2023-05-20T21:12:39.673Z,16.83
2023-05-20T21:15:06.840Z,16.83
2023-05-20T21:17:33.386Z,16.82
2023-05-20T21:20:00.053Z,16.80
2023-05-20T21:22:26.571Z,16.79
2023-05-20T21:24:52.995Z,16.75
2023-05-20T21:27:19.487Z,16.73
2023-05-20T21:29:45.970Z,16.71
2023-05-20T21:32:12.394Z,16.69
2023-05-20T21:34:38.911Z,16.69
2023-05-20T21:37:05.583Z,16.70
2023-05-20T21:39:32.017Z,16.68
2023-05-20T21:41:58.434Z,16.67
2023-05-20T21:44:24.835Z,16.61
2023-05-20T21:46:51.413Z,16.62
2023-05-20T21:49:17.966Z,16.59
2023-05-20T21:51:44.419Z,16.53
2023-05-20T21:54:10.845Z,16.47
2023-05-20T21:56:37.317Z,16.47
2023-05-20T21:59:03.750Z,16.44
2023-05-20T22:01:30.702Z,16.43
2023-05-20T22:03:57.177Z,16.44
2023-05-20T22:06:23.919Z,16.42
2023-05-20T22:08:50.395Z,16.37
2023-05-20T22:11:17.031Z,16.32
2023-05-20T22:13:44.341Z,16.30
2023-05-20T22:16:11.217Z,16.27
2023-05-20T22:18:38.523Z,16.24
2023-05-20T22:21:05.896Z,16.17
2023-05-20T22:23:32.306Z,16.16
2023-05-20T22:25:58.720Z,16.13
2023-05-20T22:28:26.174Z,16.11
2023-05-20T22:30:52.621Z,16.08
2023-05-20T22:33:19.118Z,16.07
2023-05-20T22:35:45.621Z,16.08
2023-05-20T22:38:12.118Z,16.05
2023-05-20T22:40:39.251Z,16.02
2023-05-20T22:43:05.835Z,16.01
2023-05-20T22:45:32.261Z,16.01
2023-05-20T22:47:58.769Z,16.03
2023-05-20T22:50:26.250Z,16.00
2023-05-20T22:52:52.743Z,16.01
2023-05-20T22:55:19.275Z,16.02
2023-05-20T22:57:46.041Z,16.03
2023-05-20T23:00:15.392Z,16.03
2023-05-20T23:02:42.023Z,16.07
2023-05-20T23:05:08.920Z,16.06
2023-05-20T23:07:35.375Z,16.06
2023-05-20T23:10:02.509Z,16.08
2023-05-20T23:12:29.032Z,16.04
2023-05-20T23:14:55.494Z,16.01
2023-05-20T23:17:21.971Z,15.98
2023-05-20T23:19:48.383Z,16.00
2023-05-20T23:22:14.824Z,15.98
2023-05-20T23:24:41.449Z,15.96
2023-05-20T23:27:07.875Z,15.96
2023-05-20T23:29:34.336Z,15.95
2023-05-20T23:32:00.827Z,15.94
2023-05-20T23:34:27.429Z,15.91
2023-05-20T23:36:53.890Z,15.86
2023-05-20T23:39:20.866Z,15.81
2023-05-20T23:41:47.393Z,15.81
2023-05-20T23:44:13.894Z,15.81
2023-05-20T23:46:41.678Z,15.82
2023-05-20T23:49:10.068Z,15.77
2023-05-20T23:51:36.605Z,15.75
2023-05-20T23:54:03.149Z,15.71
2023-05-20T23:56:29.667Z,15.67
2023-05-20T23:58:57.661Z,15.65
